createdAt,value
2016-08-16T00:00:07.178Z,1015.2
2016-08-16T00:00:17.916Z,1015.2
2016-08-16T00:00:27.915Z,1015.2
2016-08-16T00:00:37.918Z,1015.2
2016-08-16T00:00:47.184Z,1015.1
2016-08-16T00:00:57.194Z,1015.2
2016-08-16T00:01:07.928Z,1015.2
2016-08-16T00:01:17.946Z,1015.2
2016-08-16T00:01:27.935Z,1015.2
2016-08-16T00:01:37.938Z,1015.1
2016-08-16T00:01:47.945Z,1015.2
2016-08-16T00:01:57.942Z,1015.1
2016-08-16T00:02:07.951Z,1015.1
2016-08-16T00:02:17.947Z,1015.2
2016-08-16T00:02:27.956Z,1015.2
2016-08-16T00:02:37.954Z,1015.1
2016-08-16T00:02:47.222Z,1015.1
2016-08-16T00:02:57.967Z,1015.2
2016-08-16T00:03:07.964Z,1015.2
2016-08-16T00:03:17.970Z,1015.2
2016-08-16T00:03:27.243Z,1015.1
2016-08-16T00:03:37.976Z,1015.1
2016-08-16T00:03:47.979Z,1015.1
2016-08-16T00:03:57.980Z,1015.1
2016-08-16T00:04:07.986Z,1015.1
2016-08-16T00:04:17.251Z,1015.1
2016-08-16T00:04:27.990Z,1015.1
2016-08-16T00:04:37.996Z,1015.1
2016-08-16T00:04:48.002Z,1015.1
2016-08-16T00:04:58.001Z,1015.1
2016-08-16T00:05:08.008Z,1015.1
2016-08-16T00:05:18.006Z,1015.1
2016-08-16T00:05:28.017Z,1015.1
2016-08-16T00:05:38.017Z,1015.1
2016-08-16T00:05:48.018Z,1015.1
2016-08-16T00:05:58.021Z,1015.1
2016-08-16T00:06:08.024Z,1015.1
2016-08-16T00:06:18.030Z,1015.1
2016-08-16T00:06:28.026Z,1015
2016-08-16T00:06:38.030Z,1015.1
2016-08-16T00:06:48.039Z,1015.1
2016-08-16T00:06:58.041Z,1015.1
2016-08-16T00:07:08.043Z,1015
2016-08-16T00:07:18.052Z,1015.1
2016-08-16T00:07:28.056Z,1015.1
2016-08-16T00:07:38.048Z,1015.1
2016-08-16T00:07:48.062Z,1015
2016-08-16T00:07:58.062Z,1015.1
2016-08-16T00:08:07.333Z,1015.1
2016-08-16T00:08:18.063Z,1015.1
2016-08-16T00:08:27.339Z,1015.1
2016-08-16T00:08:38.071Z,1015.1
2016-08-16T00:08:48.073Z,1015.1
2016-08-16T00:08:58.081Z,1015.1
2016-08-16T00:09:08.082Z,1015.1
2016-08-16T00:09:18.092Z,1015
2016-08-16T00:09:28.088Z,1015.1
2016-08-16T00:09:38.092Z,1015.1
2016-08-16T00:09:48.095Z,1015.1
2016-08-16T00:09:58.096Z,1015
2016-08-16T00:10:08.098Z,1015.1
2016-08-16T00:10:18.102Z,1015.1
2016-08-16T00:10:28.105Z,1015
2016-08-16T00:10:38.105Z,1015
2016-08-16T00:10:48.109Z,1015
2016-08-16T00:10:58.116Z,1015.1
2016-08-16T00:11:08.112Z,1015.1
2016-08-16T00:11:18.117Z,1015
2016-08-16T00:11:28.123Z,1015
2016-08-16T00:11:38.138Z,1015.1
2016-08-16T00:11:48.133Z,1015.1
2016-08-16T00:11:58.134Z,1015.1
2016-08-16T00:12:07.405Z,1015.1
2016-08-16T00:12:18.147Z,1015.1
2016-08-16T00:12:27.403Z,1015.1
2016-08-16T00:12:37.416Z,1015
2016-08-16T00:12:48.155Z,1015.1
2016-08-16T00:12:58.155Z,1015.1
2016-08-16T00:13:08.157Z,1015.1
2016-08-16T00:13:18.158Z,1015.1
2016-08-16T00:13:28.164Z,1015
2016-08-16T00:13:38.165Z,1015.1
2016-08-16T00:13:48.166Z,1015
2016-08-16T00:13:58.174Z,1015
2016-08-16T00:14:08.182Z,1015
2016-08-16T00:14:18.179Z,1015
2016-08-16T00:14:28.189Z,1015
2016-08-16T00:14:38.187Z,1015
2016-08-16T00:14:48.189Z,1015.1
2016-08-16T00:14:58.191Z,1015.1
2016-08-16T00:15:08.199Z,1015.1
2016-08-16T00:15:18.194Z,1015.1
2016-08-16T00:15:28.199Z,1015.1
2016-08-16T00:15:38.200Z,1015.1
2016-08-16T00:15:47.467Z,1015.1
2016-08-16T00:15:58.210Z,1015
2016-08-16T00:16:08.217Z,1015
2016-08-16T00:16:18.225Z,1015.1
2016-08-16T00:16:28.218Z,1015
2016-08-16T00:16:38.219Z,1015.1
2016-08-16T00:16:48.223Z,1015.1
2016-08-16T00:16:58.230Z,1015.1
2016-08-16T00:17:08.230Z,1015.1
2016-08-16T00:17:18.238Z,1015.1
2016-08-16T00:17:28.239Z,1015.1
2016-08-16T00:17:38.242Z,1015.1
2016-08-16T00:17:48.243Z,1015.1
2016-08-16T00:17:58.248Z,1015
2016-08-16T00:18:08.254Z,1015.1
2016-08-16T00:18:18.256Z,1015
2016-08-16T00:18:27.522Z,1015.1
2016-08-16T00:18:37.532Z,1015.1
2016-08-16T00:18:48.263Z,1015.1
2016-08-16T00:18:58.270Z,1015
2016-08-16T00:19:07.540Z,1015.1
2016-08-16T00:19:17.544Z,1015
2016-08-16T00:19:27.557Z,1015
2016-08-16T00:19:38.283Z,1015
2016-08-16T00:19:48.284Z,1015.1
2016-08-16T00:19:58.287Z,1015
2016-08-16T00:20:08.289Z,1015
2016-08-16T00:20:18.290Z,1015
2016-08-16T00:20:28.297Z,1015
2016-08-16T00:20:38.295Z,1015
2016-08-16T00:20:48.298Z,1015
2016-08-16T00:20:58.306Z,1015
2016-08-16T00:21:08.309Z,1015
2016-08-16T00:21:18.313Z,1015
2016-08-16T00:21:28.316Z,1015.1
2016-08-16T00:21:38.319Z,1015
2016-08-16T00:21:48.319Z,1015
2016-08-16T00:21:58.323Z,1015
2016-08-16T00:22:08.326Z,1015
2016-08-16T00:22:18.334Z,1015
2016-08-16T00:22:28.335Z,1015
2016-08-16T00:22:38.333Z,1015
2016-08-16T00:22:47.599Z,1015
2016-08-16T00:22:58.347Z,1015
2016-08-16T00:23:07.606Z,1015
2016-08-16T00:23:18.358Z,1015
2016-08-16T00:23:28.352Z,1015
2016-08-16T00:23:38.355Z,1015
2016-08-16T00:23:48.358Z,1015
2016-08-16T00:23:57.632Z,1015
2016-08-16T00:24:08.366Z,1015
2016-08-16T00:24:18.371Z,1015
2016-08-16T00:24:28.373Z,1014.9
2016-08-16T00:24:38.375Z,1015
2016-08-16T00:24:48.375Z,1015
2016-08-16T00:24:58.379Z,1015
2016-08-16T00:25:07.663Z,1015
2016-08-16T00:25:18.389Z,1015
2016-08-16T00:25:28.388Z,1015
2016-08-16T00:25:38.392Z,1015
2016-08-16T00:25:48.396Z,1015
2016-08-16T00:25:58.398Z,1015
2016-08-16T00:26:07.669Z,1014.9
2016-08-16T00:26:18.400Z,1015
2016-08-16T00:26:28.420Z,1015
2016-08-16T00:26:38.411Z,1015
2016-08-16T00:26:48.416Z,1014.9
2016-08-16T00:26:57.678Z,1015
2016-08-16T00:27:07.700Z,1015
2016-08-16T00:27:18.423Z,1015
2016-08-16T00:27:28.426Z,1015
2016-08-16T00:27:38.432Z,1015
2016-08-16T00:27:47.701Z,1015
2016-08-16T00:27:58.438Z,1015
2016-08-16T00:28:08.439Z,1015
2016-08-16T00:28:17.716Z,1015
2016-08-16T00:28:28.450Z,1015
2016-08-16T00:28:38.451Z,1015
2016-08-16T00:28:48.453Z,1015
2016-08-16T00:28:58.454Z,1015
2016-08-16T00:29:08.462Z,1015
2016-08-16T00:29:18.463Z,1015
2016-08-16T00:29:27.737Z,1014.9
2016-08-16T00:29:38.469Z,1015
2016-08-16T00:29:48.469Z,1015
2016-08-16T00:29:58.472Z,1015
2016-08-16T00:30:08.475Z,1015
2016-08-16T00:30:17.752Z,1015
2016-08-16T00:30:28.482Z,1015
2016-08-16T00:30:38.494Z,1015
2016-08-16T00:30:47.761Z,1015
2016-08-16T00:30:58.497Z,1014.9
2016-08-16T00:31:08.496Z,1015
2016-08-16T00:31:18.501Z,1015
2016-08-16T00:31:28.500Z,1015
2016-08-16T00:31:38.502Z,1014.9
2016-08-16T00:31:48.511Z,1015
2016-08-16T00:31:57.780Z,1014.9
2016-08-16T00:32:08.518Z,1015
2016-08-16T00:32:18.523Z,1014.9
2016-08-16T00:32:28.520Z,1014.9
2016-08-16T00:32:38.523Z,1015
2016-08-16T00:32:48.524Z,1014.9
2016-08-16T00:32:58.544Z,1015
2016-08-16T00:33:08.536Z,1015
2016-08-16T00:33:18.532Z,1014.9
2016-08-16T00:33:28.537Z,1014.9
2016-08-16T00:33:38.543Z,1015
2016-08-16T00:33:48.549Z,1014.9
2016-08-16T00:33:58.552Z,1014.9
2016-08-16T00:34:08.554Z,1014.9
2016-08-16T00:34:18.555Z,1014.9
2016-08-16T00:34:28.564Z,1014.9
2016-08-16T00:34:38.563Z,1014.9
2016-08-16T00:34:48.564Z,1014.9
2016-08-16T00:34:58.569Z,1014.9
2016-08-16T00:35:07.843Z,1014.9
2016-08-16T00:35:18.577Z,1014.9
2016-08-16T00:35:28.576Z,1014.9
2016-08-16T00:35:38.584Z,1014.9
2016-08-16T00:35:48.587Z,1014.9
2016-08-16T00:35:57.860Z,1014.9
2016-08-16T00:36:08.590Z,1014.9
2016-08-16T00:36:17.856Z,1014.9
2016-08-16T00:36:28.597Z,1014.9
2016-08-16T00:36:38.597Z,1014.9
2016-08-16T00:36:48.601Z,1014.8
2016-08-16T00:36:58.606Z,1014.9
2016-08-16T00:37:07.876Z,1014.9
2016-08-16T00:37:18.613Z,1014.9
2016-08-16T00:37:28.617Z,1014.9
2016-08-16T00:37:38.618Z,1014.9
2016-08-16T00:37:48.623Z,1014.9
2016-08-16T00:37:57.161Z,1014.9
2016-08-16T00:38:08.626Z,1014.9
2016-08-16T00:38:17.911Z,1014.8
2016-08-16T00:38:28.637Z,1014.9
2016-08-16T00:38:38.637Z,1014.9
2016-08-16T00:38:48.640Z,1014.9
2016-08-16T00:38:58.640Z,1014.8
2016-08-16T00:39:08.648Z,1014.9
2016-08-16T00:39:18.647Z,1014.9
2016-08-16T00:39:28.648Z,1014.8
2016-08-16T00:39:38.658Z,1014.9
2016-08-16T00:39:48.663Z,1014.8
2016-08-16T00:39:58.666Z,1014.8
2016-08-16T00:40:08.672Z,1014.8
2016-08-16T00:40:18.668Z,1014.9
2016-08-16T00:40:28.667Z,1014.8
2016-08-16T00:40:38.673Z,1014.8
2016-08-16T00:40:48.678Z,1014.8
2016-08-16T00:40:58.684Z,1014.8
2016-08-16T00:41:08.688Z,1014.7
2016-08-16T00:41:18.694Z,1014.8
2016-08-16T00:41:27.952Z,1014.8
2016-08-16T00:41:38.693Z,1014.8
2016-08-16T00:41:47.969Z,1014.8
2016-08-16T00:41:58.705Z,1014.8
2016-08-16T00:42:08.701Z,1014.8
2016-08-16T00:42:17.977Z,1014.7
2016-08-16T00:42:28.713Z,1014.8
2016-08-16T00:42:37.988Z,1014.8
2016-08-16T00:42:48.717Z,1014.8
2016-08-16T00:42:58.719Z,1014.8
2016-08-16T00:43:08.724Z,1014.7
2016-08-16T00:43:18.728Z,1014.8
2016-08-16T00:43:28.729Z,1014.8
2016-08-16T00:43:38.735Z,1014.8
2016-08-16T00:43:48.734Z,1014.8
2016-08-16T00:43:58.738Z,1014.8
2016-08-16T00:44:08.740Z,1014.8
2016-08-16T00:44:18.745Z,1014.7
2016-08-16T00:44:28.743Z,1014.8
2016-08-16T00:44:38.752Z,1014.8
2016-08-16T00:44:48.759Z,1014.8
2016-08-16T00:44:58.020Z,1014.8
2016-08-16T00:45:08.026Z,1014.8
2016-08-16T00:45:18.813Z,1014.8
2016-08-16T00:45:28.766Z,1014.8
2016-08-16T00:45:38.768Z,1014.8
2016-08-16T00:45:48.771Z,1014.7
2016-08-16T00:45:58.780Z,1014.8
2016-08-16T00:46:08.776Z,1014.7
2016-08-16T00:46:18.783Z,1014.7
2016-08-16T00:46:28.788Z,1014.8
2016-08-16T00:46:38.788Z,1014.8
2016-08-16T00:46:48.809Z,1014.8
2016-08-16T00:46:58.805Z,1014.8
2016-08-16T00:47:08.799Z,1014.8
2016-08-16T00:47:18.807Z,1014.8
2016-08-16T00:47:28.803Z,1014.8
2016-08-16T00:47:38.806Z,1014.8
2016-08-16T00:47:48.814Z,1014.8
2016-08-16T00:47:58.813Z,1014.8
2016-08-16T00:48:08.815Z,1014.9
2016-08-16T00:48:18.819Z,1014.9
2016-08-16T00:48:28.093Z,1014.8
2016-08-16T00:48:38.825Z,1014.9
2016-08-16T00:48:48.828Z,1014.8
2016-08-16T00:48:58.829Z,1014.8
2016-08-16T00:49:08.832Z,1014.9
2016-08-16T00:49:18.841Z,1014.8
2016-08-16T00:49:28.850Z,1014.8
2016-08-16T00:49:38.870Z,1014.8
2016-08-16T00:49:48.847Z,1014.8
2016-08-16T00:49:58.852Z,1014.8
2016-08-16T00:50:08.854Z,1014.8
2016-08-16T00:50:18.856Z,1014.8
2016-08-16T00:50:28.142Z,1014.8
2016-08-16T00:50:38.862Z,1014.8
2016-08-16T00:50:48.867Z,1014.8
2016-08-16T00:50:58.877Z,1014.8
2016-08-16T00:51:08.873Z,1014.8
2016-08-16T00:51:18.876Z,1014.8
2016-08-16T00:51:28.877Z,1014.8
2016-08-16T00:51:38.885Z,1014.7
2016-08-16T00:51:48.158Z,1014.8
2016-08-16T00:51:58.890Z,1014.8
2016-08-16T00:52:08.161Z,1014.8
2016-08-16T00:52:18.892Z,1014.8
2016-08-16T00:52:28.900Z,1014.7
2016-08-16T00:52:38.903Z,1014.8
2016-08-16T00:52:48.904Z,1014.8
2016-08-16T00:52:58.908Z,1014.7
2016-08-16T00:53:08.906Z,1014.7
2016-08-16T00:53:18.908Z,1014.7
2016-08-16T00:53:28.909Z,1014.7
2016-08-16T00:53:38.917Z,1014.8
2016-08-16T00:53:48.922Z,1014.8
2016-08-16T00:53:58.927Z,1014.7
2016-08-16T00:54:08.925Z,1014.7
2016-08-16T00:54:18.939Z,1014.8
2016-08-16T00:54:28.212Z,1014.7
2016-08-16T00:54:38.943Z,1014.7
2016-08-16T00:54:48.217Z,1014.8
2016-08-16T00:54:58.947Z,1014.7
2016-08-16T00:55:08.947Z,1014.8
2016-08-16T00:55:18.948Z,1014.8
2016-08-16T00:55:28.963Z,1014.7
2016-08-16T00:55:38.224Z,1014.8
2016-08-16T00:55:48.960Z,1014.7
2016-08-16T00:55:58.233Z,1014.7
2016-08-16T00:56:08.966Z,1014.8
2016-08-16T00:56:18.978Z,1014.7
2016-08-16T00:56:28.974Z,1014.7
2016-08-16T00:56:38.990Z,1014.7
2016-08-16T00:56:48.976Z,1014.7
2016-08-16T00:56:58.985Z,1014.7
2016-08-16T00:57:08.988Z,1014.7
2016-08-16T00:57:18.987Z,1014.7
2016-08-16T00:57:28.988Z,1014.7
2016-08-16T00:57:39.000Z,1014.7
2016-08-16T00:57:48.996Z,1014.7
2016-08-16T00:57:59.001Z,1014.7
2016-08-16T00:58:09.005Z,1014.7
2016-08-16T00:58:19.014Z,1014.7
2016-08-16T00:58:28.284Z,1014.8
2016-08-16T00:58:38.274Z,1014.7
2016-08-16T00:58:49.016Z,1014.7
2016-08-16T00:58:59.020Z,1014.7
2016-08-16T00:59:09.018Z,1014.7
2016-08-16T00:59:19.026Z,1014.7
2016-08-16T00:59:29.027Z,1014.7
2016-08-16T00:59:39.031Z,1014.7
2016-08-16T00:59:49.037Z,1014.7
2016-08-16T00:59:59.045Z,1014.7
2016-08-16T01:00:09.039Z,1014.7
2016-08-16T01:00:19.043Z,1014.7
2016-08-16T01:00:29.051Z,1014.7
2016-08-16T01:00:39.048Z,1014.7
2016-08-16T01:00:48.316Z,1014.8
2016-08-16T01:00:59.057Z,1014.7
2016-08-16T01:01:08.324Z,1014.7
2016-08-16T01:01:18.330Z,1014.7
2016-08-16T01:01:29.064Z,1014.7
2016-08-16T01:01:39.071Z,1014.7
2016-08-16T01:01:49.087Z,1014.7
2016-08-16T01:01:59.074Z,1014.7
2016-08-16T01:02:09.080Z,1014.7
2016-08-16T01:02:19.084Z,1014.6
2016-08-16T01:02:29.084Z,1014.7
2016-08-16T01:02:39.091Z,1014.7
2016-08-16T01:02:49.091Z,1014.7
2016-08-16T01:02:59.095Z,1014.7
2016-08-16T01:03:09.094Z,1014.7
2016-08-16T01:03:19.098Z,1014.7
2016-08-16T01:03:28.383Z,1014.7
2016-08-16T01:03:39.109Z,1014.7
2016-08-16T01:03:48.377Z,1014.7
2016-08-16T01:03:59.110Z,1014.7
2016-08-16T01:04:09.115Z,1014.7
2016-08-16T01:04:19.118Z,1014.7
2016-08-16T01:04:29.131Z,1014.7
2016-08-16T01:04:39.120Z,1014.7
2016-08-16T01:04:48.399Z,1014.6
2016-08-16T01:04:59.132Z,1014.7
2016-08-16T01:05:09.132Z,1014.7
2016-08-16T01:05:19.136Z,1014.6
2016-08-16T01:05:29.138Z,1014.7
2016-08-16T01:05:39.152Z,1014.7
2016-08-16T01:05:49.149Z,1014.7
2016-08-16T01:05:59.147Z,1014.7
2016-08-16T01:06:09.150Z,1014.7
2016-08-16T01:06:19.152Z,1014.7
2016-08-16T01:06:29.159Z,1014.7
2016-08-16T01:06:39.159Z,1014.7
2016-08-16T01:06:48.433Z,1014.7
2016-08-16T01:06:59.166Z,1014.7
2016-08-16T01:07:09.174Z,1014.7
2016-08-16T01:07:19.176Z,1014.6
2016-08-16T01:07:29.175Z,1014.6
2016-08-16T01:07:39.186Z,1014.6
2016-08-16T01:07:49.185Z,1014.7
2016-08-16T01:07:59.194Z,1014.7
2016-08-16T01:08:09.193Z,1014.7
2016-08-16T01:08:19.190Z,1014.7
2016-08-16T01:08:28.464Z,1014.7
2016-08-16T01:08:39.194Z,1014.6
2016-08-16T01:08:49.205Z,1014.6
2016-08-16T01:08:59.203Z,1014.7
2016-08-16T01:09:09.208Z,1014.6
2016-08-16T01:09:19.208Z,1014.6
2016-08-16T01:09:29.210Z,1014.7
2016-08-16T01:09:38.489Z,1014.7
2016-08-16T01:09:49.218Z,1014.7
2016-08-16T01:09:58.493Z,1014.7
2016-08-16T01:10:09.222Z,1014.7
2016-08-16T01:10:19.231Z,1014.7
2016-08-16T01:10:29.236Z,1014.7
2016-08-16T01:10:39.246Z,1014.7
2016-08-16T01:10:49.242Z,1014.8
2016-08-16T01:10:59.246Z,1014.6
2016-08-16T01:11:09.246Z,1014.7
2016-08-16T01:11:19.246Z,1014.7
2016-08-16T01:11:29.255Z,1014.7
2016-08-16T01:11:39.253Z,1014.7
2016-08-16T01:11:49.260Z,1014.7
2016-08-16T01:11:59.891Z,1014.7
2016-08-16T01:12:09.262Z,1014.7
2016-08-16T01:12:19.273Z,1014.7
2016-08-16T01:12:29.267Z,1014.7
2016-08-16T01:12:38.543Z,1014.7
2016-08-16T01:12:49.278Z,1014.7
2016-08-16T01:12:59.280Z,1014.7
2016-08-16T01:13:09.282Z,1014.7
2016-08-16T01:13:19.282Z,1014.7
2016-08-16T01:13:29.289Z,1014.7
2016-08-16T01:13:39.303Z,1014.7
2016-08-16T01:13:49.296Z,1014.7
2016-08-16T01:13:59.298Z,1014.7
2016-08-16T01:14:09.304Z,1014.7
2016-08-16T01:14:19.306Z,1014.6
2016-08-16T01:14:29.315Z,1014.7
2016-08-16T01:14:38.585Z,1014.7
2016-08-16T01:14:49.313Z,1014.7
2016-08-16T01:14:59.318Z,1014.7
2016-08-16T01:15:09.319Z,1014.7
2016-08-16T01:15:19.325Z,1014.7
2016-08-16T01:15:28.595Z,1014.7
2016-08-16T01:15:39.364Z,1014.7
2016-08-16T01:15:49.331Z,1014.6
2016-08-16T01:15:59.334Z,1014.7
2016-08-16T01:16:08.616Z,1014.6
2016-08-16T01:16:19.342Z,1014.6
2016-08-16T01:16:29.349Z,1014.6
2016-08-16T01:16:39.346Z,1014.6
2016-08-16T01:16:49.354Z,1014.7
2016-08-16T01:16:59.362Z,1014.6
2016-08-16T01:17:09.358Z,1014.7
2016-08-16T01:17:19.362Z,1014.6
2016-08-16T01:17:29.364Z,1014.6
2016-08-16T01:17:39.375Z,1014.7
2016-08-16T01:17:49.368Z,1014.7
2016-08-16T01:17:59.375Z,1014.7
2016-08-16T01:18:08.644Z,1014.7
2016-08-16T01:18:19.425Z,1014.7
2016-08-16T01:18:29.382Z,1014.7
2016-08-16T01:18:39.394Z,1014.7
2016-08-16T01:18:49.392Z,1014.6
2016-08-16T01:18:59.392Z,1014.7
2016-08-16T01:19:09.394Z,1014.6
2016-08-16T01:19:19.396Z,1014.7
2016-08-16T01:19:29.398Z,1014.7
2016-08-16T01:19:39.401Z,1014.6
2016-08-16T01:19:49.422Z,1014.7
2016-08-16T01:19:59.412Z,1014.7
2016-08-16T01:20:09.416Z,1014.7
2016-08-16T01:20:19.417Z,1014.7
2016-08-16T01:20:28.691Z,1014.7
2016-08-16T01:20:39.423Z,1014.7
2016-08-16T01:20:49.427Z,1014.7
2016-08-16T01:20:59.431Z,1014.7
2016-08-16T01:21:09.430Z,1014.7
2016-08-16T01:21:19.436Z,1014.7
2016-08-16T01:21:29.445Z,1014.7
2016-08-16T01:21:39.455Z,1014.7
2016-08-16T01:21:49.444Z,1014.6
2016-08-16T01:21:59.447Z,1014.7
2016-08-16T01:22:09.451Z,1014.7
2016-08-16T01:22:19.453Z,1014.6
2016-08-16T01:22:29.458Z,1014.7
2016-08-16T01:22:39.462Z,1014.7
2016-08-16T01:22:49.471Z,1014.7
2016-08-16T01:22:59.468Z,1014.7
2016-08-16T01:23:09.465Z,1014.7
2016-08-16T01:23:19.477Z,1014.7
2016-08-16T01:23:29.476Z,1014.7
2016-08-16T01:23:39.481Z,1014.6
2016-08-16T01:23:49.481Z,1014.6
2016-08-16T01:23:59.484Z,1014.7
2016-08-16T01:24:09.493Z,1014.7
2016-08-16T01:24:19.490Z,1014.7
2016-08-16T01:24:29.498Z,1014.7
2016-08-16T01:24:39.499Z,1014.7
2016-08-16T01:24:48.781Z,1014.7
2016-08-16T01:24:59.502Z,1014.7
2016-08-16T01:25:09.504Z,1014.6
2016-08-16T01:25:19.507Z,1014.7
2016-08-16T01:25:29.514Z,1014.7
2016-08-16T01:25:39.516Z,1014.6
2016-08-16T01:25:49.519Z,1014.7
2016-08-16T01:25:59.525Z,1014.6
2016-08-16T01:26:09.523Z,1014.6
2016-08-16T01:26:19.527Z,1014.7
2016-08-16T01:26:29.525Z,1014.7
2016-08-16T01:26:39.529Z,1014.6
2016-08-16T01:26:49.537Z,1014.6
2016-08-16T01:26:59.545Z,1014.7
2016-08-16T01:27:09.540Z,1014.7
2016-08-16T01:27:19.541Z,1014.6
2016-08-16T01:27:29.543Z,1014.6
2016-08-16T01:27:38.824Z,1014.6
2016-08-16T01:27:49.561Z,1014.6
2016-08-16T01:27:59.556Z,1014.6
2016-08-16T01:28:09.560Z,1014.6
2016-08-16T01:28:19.564Z,1014.7
2016-08-16T01:28:29.567Z,1014.7
2016-08-16T01:28:39.571Z,1014.6
2016-08-16T01:28:49.573Z,1014.7
2016-08-16T01:28:59.581Z,1014.6
2016-08-16T01:29:09.579Z,1014.6
2016-08-16T01:29:18.854Z,1014.7
2016-08-16T01:29:29.588Z,1014.6
2016-08-16T01:29:39.589Z,1014.6
2016-08-16T01:29:49.596Z,1014.6
2016-08-16T01:29:59.594Z,1014.6
2016-08-16T01:30:09.597Z,1014.7
2016-08-16T01:30:19.601Z,1014.6
2016-08-16T01:30:29.604Z,1014.7
2016-08-16T01:30:39.605Z,1014.6
2016-08-16T01:30:49.619Z,1014.7
2016-08-16T01:30:59.616Z,1014.6
2016-08-16T01:31:09.619Z,1014.7
2016-08-16T01:31:19.624Z,1014.6
2016-08-16T01:31:29.621Z,1014.6
2016-08-16T01:31:39.623Z,1014.6
2016-08-16T01:31:49.628Z,1014.6
2016-08-16T01:31:59.634Z,1014.6
2016-08-16T01:32:09.642Z,1014.6
2016-08-16T01:32:19.637Z,1014.6
2016-08-16T01:32:29.638Z,1014.7
2016-08-16T01:32:39.643Z,1014.7
2016-08-16T01:32:49.651Z,1014.6
2016-08-16T01:32:59.652Z,1014.6
2016-08-16T01:33:09.659Z,1014.7
2016-08-16T01:33:18.970Z,1014.6
2016-08-16T01:33:29.659Z,1014.6
2016-08-16T01:33:39.669Z,1014.6
2016-08-16T01:33:48.939Z,1014.6
2016-08-16T01:33:59.673Z,1014.6
2016-08-16T01:34:09.670Z,1014.6
2016-08-16T01:34:18.951Z,1014.6
2016-08-16T01:34:29.676Z,1014.6
2016-08-16T01:34:39.678Z,1014.6
2016-08-16T01:34:49.687Z,1014.6
2016-08-16T01:34:59.912Z,1014.6
2016-08-16T01:35:08.951Z,1014.6
2016-08-16T01:35:19.699Z,1014.6
2016-08-16T01:35:29.700Z,1014.6
2016-08-16T01:35:39.700Z,1014.6
2016-08-16T01:35:49.706Z,1014.6
2016-08-16T01:35:59.705Z,1014.6
2016-08-16T01:36:09.707Z,1014.6
2016-08-16T01:36:19.716Z,1014.6
2016-08-16T01:36:29.717Z,1014.6
2016-08-16T01:36:39.715Z,1014.5
2016-08-16T01:36:49.720Z,1014.6
2016-08-16T01:36:59.723Z,1014.6
2016-08-16T01:37:09.727Z,1014.6
2016-08-16T01:37:18.997Z,1014.6
2016-08-16T01:37:29.010Z,1014.5
2016-08-16T01:37:39.741Z,1014.6
2016-08-16T01:37:49.742Z,1014.6
2016-08-16T01:37:59.745Z,1014.6
2016-08-16T01:38:09.745Z,1014.6
2016-08-16T01:38:19.751Z,1014.5
2016-08-16T01:38:29.755Z,1014.6
2016-08-16T01:38:39.756Z,1014.6
2016-08-16T01:38:49.758Z,1014.6
2016-08-16T01:38:59.767Z,1014.6
2016-08-16T01:39:09.763Z,1014.6
2016-08-16T01:39:19.777Z,1014.5
2016-08-16T01:39:29.772Z,1014.6
2016-08-16T01:39:39.783Z,1014.6
2016-08-16T01:39:49.046Z,1014.6
2016-08-16T01:39:59.781Z,1014.6
2016-08-16T01:40:09.790Z,1014.6
2016-08-16T01:40:19.066Z,1014.6
2016-08-16T01:40:29.796Z,1014.6
2016-08-16T01:40:39.791Z,1014.6
2016-08-16T01:40:49.803Z,1014.6
2016-08-16T01:40:59.797Z,1014.5
2016-08-16T01:41:09.800Z,1014.6
2016-08-16T01:41:19.804Z,1014.5
2016-08-16T01:41:29.807Z,1014.5
2016-08-16T01:41:39.811Z,1014.5
2016-08-16T01:41:49.822Z,1014.6
2016-08-16T01:41:58.349Z,1014.5
2016-08-16T01:42:09.090Z,1014.5
2016-08-16T01:42:19.820Z,1014.5
2016-08-16T01:42:29.827Z,1014.6
2016-08-16T01:42:39.848Z,1014.5
2016-08-16T01:42:49.836Z,1014.6
2016-08-16T01:42:59.834Z,1014.5
2016-08-16T01:43:09.842Z,1014.6
2016-08-16T01:43:19.842Z,1014.5
2016-08-16T01:43:29.848Z,1014.5
2016-08-16T01:43:39.849Z,1014.5
2016-08-16T01:43:49.852Z,1014.6
2016-08-16T01:43:59.856Z,1014.6
2016-08-16T01:44:09.857Z,1014.6
2016-08-16T01:44:19.861Z,1014.6
2016-08-16T01:44:29.881Z,1014.6
2016-08-16T01:44:39.865Z,1014.6
2016-08-16T01:44:49.870Z,1014.6
2016-08-16T01:44:59.142Z,1014.6
2016-08-16T01:45:09.878Z,1014.6
2016-08-16T01:45:19.875Z,1014.6
2016-08-16T01:45:29.889Z,1014.6
2016-08-16T01:45:39.886Z,1014.6
2016-08-16T01:45:49.148Z,1014.6
2016-08-16T01:45:59.886Z,1014.6
2016-08-16T01:46:09.895Z,1014.5
2016-08-16T01:46:19.898Z,1014.5
2016-08-16T01:46:29.899Z,1014.6
2016-08-16T01:46:39.911Z,1014.5
2016-08-16T01:46:49.911Z,1014.5
2016-08-16T01:46:59.914Z,1014.6
2016-08-16T01:47:09.927Z,1014.5
2016-08-16T01:47:19.183Z,1014.5
2016-08-16T01:47:30.148Z,1014.5
2016-08-16T01:47:39.918Z,1014.5
2016-08-16T01:47:49.927Z,1014.5
2016-08-16T01:47:59.931Z,1014.6
2016-08-16T01:48:09.932Z,1014.5
2016-08-16T01:48:19.954Z,1014.5
2016-08-16T01:48:29.933Z,1014.5
2016-08-16T01:48:39.945Z,1014.5
2016-08-16T01:48:49.939Z,1014.6
2016-08-16T01:48:59.947Z,1014.6
2016-08-16T01:49:09.947Z,1014.5
2016-08-16T01:49:19.953Z,1014.5
2016-08-16T01:49:29.956Z,1014.5
2016-08-16T01:49:39.955Z,1014.5
2016-08-16T01:49:49.960Z,1014.5
2016-08-16T01:49:59.968Z,1014.5
2016-08-16T01:50:09.965Z,1014.5
2016-08-16T01:50:19.972Z,1014.5
2016-08-16T01:50:29.974Z,1014.5
2016-08-16T01:50:39.982Z,1014.5
2016-08-16T01:50:49.976Z,1014.5
2016-08-16T01:50:59.980Z,1014.5
2016-08-16T01:51:09.985Z,1014.5
2016-08-16T01:51:19.990Z,1014.5
2016-08-16T01:51:29.988Z,1014.6
2016-08-16T01:51:39.994Z,1014.5
2016-08-16T01:51:49.999Z,1014.5
2016-08-16T01:52:00.008Z,1014.5
2016-08-16T01:52:09.268Z,1014.5
2016-08-16T01:52:20.007Z,1014.5
2016-08-16T01:52:30.008Z,1014.5
2016-08-16T01:52:40.011Z,1014.5
2016-08-16T01:52:50.017Z,1014.5
2016-08-16T01:53:00.015Z,1014.5
2016-08-16T01:53:10.026Z,1014.5
2016-08-16T01:53:20.021Z,1014.5
2016-08-16T01:53:30.027Z,1014.5
2016-08-16T01:53:40.032Z,1014.5
2016-08-16T01:53:50.034Z,1014.5
2016-08-16T01:54:00.038Z,1014.5
2016-08-16T01:54:10.038Z,1014.5
2016-08-16T01:54:19.314Z,1014.5
2016-08-16T01:54:30.048Z,1014.5
2016-08-16T01:54:40.052Z,1014.5
2016-08-16T01:54:49.324Z,1014.5
2016-08-16T01:55:00.058Z,1014.5
2016-08-16T01:55:10.056Z,1014.5
2016-08-16T01:55:19.331Z,1014.5
2016-08-16T01:55:30.069Z,1014.4
2016-08-16T01:55:40.172Z,1014.5
2016-08-16T01:55:50.070Z,1014.5
2016-08-16T01:56:00.071Z,1014.5
2016-08-16T01:56:10.077Z,1014.5
2016-08-16T01:56:19.345Z,1014.5
2016-08-16T01:56:30.085Z,1014.5
2016-08-16T01:56:39.356Z,1014.5
2016-08-16T01:56:50.086Z,1014.5
2016-08-16T01:56:59.359Z,1014.5
2016-08-16T01:57:09.367Z,1014.5
2016-08-16T01:57:19.374Z,1014.4
2016-08-16T01:57:30.101Z,1014.5
2016-08-16T01:57:40.114Z,1014.5
2016-08-16T01:57:49.373Z,1014.4
2016-08-16T01:58:00.113Z,1014.5
2016-08-16T01:58:10.115Z,1014.5
2016-08-16T01:58:19.387Z,1014.5
2016-08-16T01:58:29.393Z,1014.5
2016-08-16T01:58:40.122Z,1014.5
2016-08-16T01:58:50.124Z,1014.5
2016-08-16T01:59:00.129Z,1014.5
2016-08-16T01:59:10.131Z,1014.5
2016-08-16T01:59:20.139Z,1014.4
2016-08-16T01:59:29.400Z,1014.4
2016-08-16T01:59:40.149Z,1014.5
2016-08-16T01:59:50.142Z,1014.5
2016-08-16T02:00:00.146Z,1014.5
2016-08-16T02:00:10.149Z,1014.5
2016-08-16T02:00:20.152Z,1014.5
2016-08-16T02:00:29.421Z,1014.4
2016-08-16T02:00:40.161Z,1014.5
2016-08-16T02:00:50.161Z,1014.4
2016-08-16T02:01:00.165Z,1014.5
2016-08-16T02:01:10.173Z,1014.5
2016-08-16T02:01:20.174Z,1014.5
2016-08-16T02:01:30.182Z,1014.5
2016-08-16T02:01:40.179Z,1014.5
2016-08-16T02:01:50.178Z,1014.5
2016-08-16T02:02:00.183Z,1014.5
2016-08-16T02:02:10.185Z,1014.5
2016-08-16T02:02:20.198Z,1014.5
2016-08-16T02:02:30.195Z,1014.4
2016-08-16T02:02:40.197Z,1014.4
2016-08-16T02:02:50.199Z,1014.5
2016-08-16T02:03:00.200Z,1014.5
2016-08-16T02:03:10.202Z,1014.5
2016-08-16T02:03:19.479Z,1014.5
2016-08-16T02:03:29.481Z,1014.5
2016-08-16T02:03:40.212Z,1014.5
2016-08-16T02:03:50.217Z,1014.4
2016-08-16T02:04:00.223Z,1014.4
2016-08-16T02:04:10.223Z,1014.5
2016-08-16T02:04:20.228Z,1014.5
2016-08-16T02:04:29.713Z,1014.5
2016-08-16T02:04:40.233Z,1014.5
2016-08-16T02:04:50.232Z,1014.4
2016-08-16T02:05:00.244Z,1014.4
2016-08-16T02:05:10.244Z,1014.4
2016-08-16T02:05:20.247Z,1014.5
2016-08-16T02:05:30.247Z,1014.5
2016-08-16T02:05:40.249Z,1014.5
2016-08-16T02:05:50.263Z,1014.5